Alexander 3 — SW6137 — position and weather

sailwx.info

Track history (hours):
 
Tides and Currents Weather Stations Pressure Air Temp Water Temp Dewpoint Dewpoint Depression Visibility Wind Speed Wind Dir Waves Ship Positions

Alexander 3

Last reported at 2015-Mar-05 14:33 UTC. Time now 2015-Mar-05 14:40 UTC.
Position N 37°57' E 023°23'.

Length 38 m; draft 5.6 m.

Type: Tug. MMSI: 240733000.

Date/timePositionNaut miles runAvg speedWind from/ knotsBaromVisibWave heightAir tempDewpointWater temp
2015-Mar-05 14:33N 37°57' E 023°23'4 3.8
2015-Mar-05 13:34N 37°60' E 023°26'7 6.7
2015-Mar-05 12:33N 37°57' E 023°34'2 2.2
2015-Mar-05 11:34N 37°57' E 023°37'0 0.0
2015-Mar-05 10:33N 37°57' E 023°37'0 0.0
2015-Mar-05 09:34N 37°57' E 023°37'0 0.0
2015-Mar-05 08:33N 37°57' E 023°37'0 0.0
2015-Mar-05 07:33N 37°57' E 023°37'0 0.0
2015-Mar-05 06:33N 37°57' E 023°37'1 0.7
2015-Mar-05 05:33N 37°57' E 023°36'2 2.1
2015-Mar-05 04:33N 37°56' E 023°38'0 0.0
2015-Mar-04 14:25N 37°56' E 023°38'0 0.0
2015-Mar-04 13:33N 37°56' E 023°38'0 0.0
2015-Mar-04 12:33N 37°56' E 023°38'0 0.0
2015-Mar-04 11:33N 37°56' E 023°38'3 3.5
2015-Mar-04 10:34N 37°57' E 023°34'0 0.0
2015-Mar-04 09:33N 37°57' E 023°34'0 0.0
2015-Mar-04 08:33N 37°57' E 023°34'0 0.0
2015-Mar-04 07:33N 37°57' E 023°34'5 5.1
2015-Mar-04 06:33N 38°02' E 023°32'5 4.7
2015-Mar-04 05:34N 37°57' E 023°33'3 2.6
2015-Mar-04 04:33N 37°57' E 023°37'0 0.0
2015-Mar-03 14:34N 37°57' E 023°37'0 0.0
2015-Mar-03 13:33N 37°57' E 023°37'0 0.0
2015-Mar-03 12:33N 37°57' E 023°37'0 0.0
2015-Mar-03 11:34N 37°57' E 023°37'3 3.2
2015-Mar-03 10:34N 37°59' E 023°33'3 3.4
2015-Mar-03 09:34N 38°02' E 023°35'4 4.5
2015-Mar-03 08:34N 37°57' E 023°36'1 0.7
2015-Mar-03 07:34N 37°57' E 023°37'0 0.0
2015-Mar-03 06:33N 37°57' E 023°37'0 0.0
2015-Mar-03 05:34N 37°57' E 023°37'0 0.0
2015-Mar-02 16:33N 37°57' E 023°37'0 0.0
2015-Mar-02 15:21N 37°57' E 023°37'0 0.0
2015-Mar-02 14:33N 37°57' E 023°37'0 0.0
2015-Mar-02 13:33N 37°57' E 023°37'0 0.0
2015-Mar-02 12:34N 37°57' E 023°37'0 0.0
2015-Mar-02 11:33N 37°57' E 023°37'0 0.0
2015-Mar-02 10:34N 37°57' E 023°37'0 0.0
2015-Mar-02 09:33N 37°57' E 023°37'0 0.0
2015-Mar-02 08:33N 37°57' E 023°37'0 0.0
2015-Mar-02 07:33N 37°57' E 023°37'0 0.0
2015-Mar-02 06:33N 37°57' E 023°37'0 0.0
2015-Mar-02 05:34N 37°57' E 023°37'0 0.0
2015-Mar-01 16:24N 37°57' E 023°37'0 0.0
2015-Mar-01 15:33N 37°57' E 023°37'0 0.0
2015-Mar-01 14:33N 37°57' E 023°37'0 0.0
2015-Mar-01 13:33N 37°57' E 023°37'0 0.0
2015-Mar-01 12:33N 37°57' E 023°37'0 0.0
2015-Mar-01 11:33N 37°57' E 023°37'0 0.0
2015-Mar-01 10:33N 37°57' E 023°37'0 0.0
2015-Mar-01 09:33N 37°57' E 023°37'0 0.0
2015-Mar-01 08:33N 37°57' E 023°37'0 0.0
2015-Mar-01 07:33N 37°57' E 023°37'0 0.0
2015-Mar-01 06:33N 37°57' E 023°37'0 0.0
2015-Mar-01 05:33N 37°57' E 023°37'0 0.0
2015-Feb-28 14:33N 37°57' E 023°37'0 0.0
2015-Feb-28 13:33N 37°57' E 023°37'0 0.0
2015-Feb-28 12:33N 37°57' E 023°37'0 0.0
2015-Feb-28 11:33N 37°57' E 023°37'0 0.0
2015-Feb-28 10:33N 37°57' E 023°37'0 0.0
2015-Feb-28 09:33N 37°57' E 023°37'0 0.0
2015-Feb-28 08:33N 37°57' E 023°37'0 0.0
2015-Feb-28 07:33N 37°57' E 023°37'0 0.0
2015-Feb-28 06:33N 37°57' E 023°37'0 0.0
2015-Feb-28 05:33N 37°57' E 023°37'0 0.0
2015-Feb-27 16:33N 37°57' E 023°37'0 0.0
2015-Feb-27 15:33N 37°57' E 023°37'0 0.0
2015-Feb-27 14:33N 37°57' E 023°37'0 0.0
2015-Feb-27 13:33N 37°57' E 023°37'0 0.0
2015-Feb-27 12:33N 37°57' E 023°37'0 0.0
2015-Feb-27 11:33N 37°57' E 023°37'0 0.0
2015-Feb-27 10:33N 37°57' E 023°37'0 0.0
2015-Feb-27 09:33N 37°57' E 023°37'0 0.0
2015-Feb-27 08:33N 37°57' E 023°37'0 0.0
2015-Feb-27 07:33N 37°57' E 023°37'0 0.0
2015-Feb-27 06:33N 37°57' E 023°37'0 0.0
2015-Feb-27 05:33N 37°57' E 023°37'0 0.0
2015-Feb-26 16:33N 37°57' E 023°37'0 0.0
2015-Feb-26 15:33N 37°57' E 023°37'0 0.0
2015-Feb-26 14:33N 37°57' E 023°37'0 0.0
2015-Feb-26 13:33N 37°57' E 023°37'0 0.0
2015-Feb-26 12:33N 37°57' E 023°37'0 0.0
2015-Feb-26 11:33N 37°57' E 023°37'0 0.0
2015-Feb-26 10:33N 37°57' E 023°37'0 0.0
2015-Feb-26 09:33N 37°57' E 023°37'0 0.0
2015-Feb-26 08:33N 37°57' E 023°37'0 0.0
2015-Feb-26 07:33N 37°57' E 023°37'0 0.0
2015-Feb-26 05:30N 37°57' E 023°37'0 0.0
2015-Feb-25 17:33N 37°57' E 023°37'0 0.0
2015-Feb-25 16:33N 37°57' E 023°37'0 0.0
2015-Feb-25 15:33N 37°57' E 023°37'0 0.0
2015-Feb-25 14:34N 37°57' E 023°37'0 0.0
2015-Feb-25 13:34N 37°57' E 023°37'0 0.0
2015-Feb-25 12:33N 37°57' E 023°37'0 0.0
2015-Feb-25 11:33N 37°57' E 023°37'0 0.0
2015-Feb-25 10:33N 37°57' E 023°37'0 0.0
2015-Feb-25 09:34N 37°57' E 023°37'0 0.0
2015-Feb-25 08:33N 37°57' E 023°37'0 0.0
2015-Feb-25 07:33N 37°57' E 023°37'0 0.0
2015-Feb-25 06:33N 37°57' E 023°37'0 0.0
2015-Feb-25 05:33N 37°57' E 023°37'0 0.0
2015-Feb-24 16:33N 37°57' E 023°37'0 0.0
2015-Feb-24 15:33N 37°57' E 023°37'0 0.0
2015-Feb-24 14:33N 37°57' E 023°37'0 0.0
2015-Feb-24 13:33N 37°57' E 023°37'0 0.0
2015-Feb-24 12:33N 37°57' E 023°37'0 0.0
2015-Feb-24 11:33N 37°57' E 023°37'0 0.0
2015-Feb-24 10:33N 37°57' E 023°37'0 0.0
2015-Feb-24 09:33N 37°57' E 023°37'0 0.0
2015-Feb-24 08:33N 37°57' E 023°37'0 0.0
2015-Feb-24 07:33N 37°57' E 023°37'0 0.0
2015-Feb-24 06:33N 37°57' E 023°37'0 0.0
2015-Feb-24 05:33N 37°57' E 023°37'  
Track history (hours):
 
Tides and Currents Weather Stations Pressure Air Temp Water Temp Dewpoint Dewpoint Depression Visibility Wind Speed Wind Dir Waves Ship Positions

Alexander 3

Last reported at 2015-Mar-05 14:33 UTC. Time now 2015-Mar-05 14:40 UTC.
Position N 37°57' E 023°23'.

Length 38 m; draft 5.6 m.

Type: Tug. MMSI: 240733000.

Date/timePositionNaut miles runAvg speedWind from/ knotsBaromVisibWave heightAir tempDewpointWater temp
2015-Mar-05 14:33N 37°57' E 023°23'4 3.8
2015-Mar-05 13:34N 37°60' E 023°26'7 6.7
2015-Mar-05 12:33N 37°57' E 023°34'2 2.2
2015-Mar-05 11:34N 37°57' E 023°37'0 0.0
2015-Mar-05 10:33N 37°57' E 023°37'0 0.0
2015-Mar-05 09:34N 37°57' E 023°37'0 0.0
2015-Mar-05 08:33N 37°57' E 023°37'0 0.0
2015-Mar-05 07:33N 37°57' E 023°37'0 0.0
2015-Mar-05 06:33N 37°57' E 023°37'1 0.7
2015-Mar-05 05:33N 37°57' E 023°36'2 2.1
2015-Mar-05 04:33N 37°56' E 023°38'0 0.0
2015-Mar-04 14:25N 37°56' E 023°38'0 0.0
2015-Mar-04 13:33N 37°56' E 023°38'0 0.0
2015-Mar-04 12:33N 37°56' E 023°38'0 0.0
2015-Mar-04 11:33N 37°56' E 023°38'3 3.5
2015-Mar-04 10:34N 37°57' E 023°34'0 0.0
2015-Mar-04 09:33N 37°57' E 023°34'0 0.0
2015-Mar-04 08:33N 37°57' E 023°34'0 0.0
2015-Mar-04 07:33N 37°57' E 023°34'5 5.1
2015-Mar-04 06:33N 38°02' E 023°32'5 4.7
2015-Mar-04 05:34N 37°57' E 023°33'3 2.6
2015-Mar-04 04:33N 37°57' E 023°37'0 0.0
2015-Mar-03 14:34N 37°57' E 023°37'0 0.0
2015-Mar-03 13:33N 37°57' E 023°37'0 0.0
2015-Mar-03 12:33N 37°57' E 023°37'0 0.0
2015-Mar-03 11:34N 37°57' E 023°37'3 3.2
2015-Mar-03 10:34N 37°59' E 023°33'3 3.4
2015-Mar-03 09:34N 38°02' E 023°35'4 4.5
2015-Mar-03 08:34N 37°57' E 023°36'1 0.7
2015-Mar-03 07:34N 37°57' E 023°37'0 0.0
2015-Mar-03 06:33N 37°57' E 023°37'0 0.0
2015-Mar-03 05:34N 37°57' E 023°37'0 0.0
2015-Mar-02 16:33N 37°57' E 023°37'0 0.0
2015-Mar-02 15:21N 37°57' E 023°37'0 0.0
2015-Mar-02 14:33N 37°57' E 023°37'0 0.0
2015-Mar-02 13:33N 37°57' E 023°37'0 0.0
2015-Mar-02 12:34N 37°57' E 023°37'0 0.0
2015-Mar-02 11:33N 37°57' E 023°37'0 0.0
2015-Mar-02 10:34N 37°57' E 023°37'0 0.0
2015-Mar-02 09:33N 37°57' E 023°37'0 0.0
2015-Mar-02 08:33N 37°57' E 023°37'0 0.0
2015-Mar-02 07:33N 37°57' E 023°37'0 0.0
2015-Mar-02 06:33N 37°57' E 023°37'0 0.0
2015-Mar-02 05:34N 37°57' E 023°37'0 0.0
2015-Mar-01 16:24N 37°57' E 023°37'0 0.0
2015-Mar-01 15:33N 37°57' E 023°37'0 0.0
2015-Mar-01 14:33N 37°57' E 023°37'0 0.0
2015-Mar-01 13:33N 37°57' E 023°37'0 0.0
2015-Mar-01 12:33N 37°57' E 023°37'0 0.0
2015-Mar-01 11:33N 37°57' E 023°37'0 0.0
2015-Mar-01 10:33N 37°57' E 023°37'0 0.0
2015-Mar-01 09:33N 37°57' E 023°37'0 0.0
2015-Mar-01 08:33N 37°57' E 023°37'0 0.0
2015-Mar-01 07:33N 37°57' E 023°37'0 0.0
2015-Mar-01 06:33N 37°57' E 023°37'0 0.0
2015-Mar-01 05:33N 37°57' E 023°37'0 0.0
2015-Feb-28 14:33N 37°57' E 023°37'0 0.0
2015-Feb-28 13:33N 37°57' E 023°37'0 0.0
2015-Feb-28 12:33N 37°57' E 023°37'0 0.0
2015-Feb-28 11:33N 37°57' E 023°37'0 0.0
2015-Feb-28 10:33N 37°57' E 023°37'0 0.0
2015-Feb-28 09:33N 37°57' E 023°37'0 0.0
2015-Feb-28 08:33N 37°57' E 023°37'0 0.0
2015-Feb-28 07:33N 37°57' E 023°37'0 0.0
2015-Feb-28 06:33N 37°57' E 023°37'0 0.0
2015-Feb-28 05:33N 37°57' E 023°37'0 0.0
2015-Feb-27 16:33N 37°57' E 023°37'0 0.0
2015-Feb-27 15:33N 37°57' E 023°37'0 0.0
2015-Feb-27 14:33N 37°57' E 023°37'0 0.0
2015-Feb-27 13:33N 37°57' E 023°37'0 0.0
2015-Feb-27 12:33N 37°57' E 023°37'0 0.0
2015-Feb-27 11:33N 37°57' E 023°37'0 0.0
2015-Feb-27 10:33N 37°57' E 023°37'0 0.0
2015-Feb-27 09:33N 37°57' E 023°37'0 0.0
2015-Feb-27 08:33N 37°57' E 023°37'0 0.0
2015-Feb-27 07:33N 37°57' E 023°37'0 0.0
2015-Feb-27 06:33N 37°57' E 023°37'0 0.0
2015-Feb-27 05:33N 37°57' E 023°37'0 0.0
2015-Feb-26 16:33N 37°57' E 023°37'0 0.0
2015-Feb-26 15:33N 37°57' E 023°37'0 0.0
2015-Feb-26 14:33N 37°57' E 023°37'0 0.0
2015-Feb-26 13:33N 37°57' E 023°37'0 0.0
2015-Feb-26 12:33N 37°57' E 023°37'0 0.0
2015-Feb-26 11:33N 37°57' E 023°37'0 0.0
2015-Feb-26 10:33N 37°57' E 023°37'0 0.0
2015-Feb-26 09:33N 37°57' E 023°37'0 0.0
2015-Feb-26 08:33N 37°57' E 023°37'0 0.0
2015-Feb-26 07:33N 37°57' E 023°37'0 0.0
2015-Feb-26 05:30N 37°57' E 023°37'0 0.0
2015-Feb-25 17:33N 37°57' E 023°37'0 0.0
2015-Feb-25 16:33N 37°57' E 023°37'0 0.0
2015-Feb-25 15:33N 37°57' E 023°37'0 0.0
2015-Feb-25 14:34N 37°57' E 023°37'0 0.0
2015-Feb-25 13:34N 37°57' E 023°37'0 0.0
2015-Feb-25 12:33N 37°57' E 023°37'0 0.0
2015-Feb-25 11:33N 37°57' E 023°37'0 0.0
2015-Feb-25 10:33N 37°57' E 023°37'0 0.0
2015-Feb-25 09:34N 37°57' E 023°37'0 0.0
2015-Feb-25 08:33N 37°57' E 023°37'0 0.0
2015-Feb-25 07:33N 37°57' E 023°37'0 0.0
2015-Feb-25 06:33N 37°57' E 023°37'0 0.0
2015-Feb-25 05:33N 37°57' E 023°37'0 0.0
2015-Feb-24 16:33N 37°57' E 023°37'0 0.0
2015-Feb-24 15:33N 37°57' E 023°37'0 0.0
2015-Feb-24 14:33N 37°57' E 023°37'0 0.0
2015-Feb-24 13:33N 37°57' E 023°37'0 0.0
2015-Feb-24 12:33N 37°57' E 023°37'0 0.0
2015-Feb-24 11:33N 37°57' E 023°37'0 0.0
2015-Feb-24 10:33N 37°57' E 023°37'0 0.0
2015-Feb-24 09:33N 37°57' E 023°37'0 0.0
2015-Feb-24 08:33N 37°57' E 023°37'0 0.0
2015-Feb-24 07:33N 37°57' E 023°37'0 0.0
2015-Feb-24 06:33N 37°57' E 023°37'0 0.0
2015-Feb-24 05:33N 37°57' E 023°37'  

Dump ship's entire track history